createdAt,value
2023-05-08T12:27:19.527Z,4.80
2023-05-08T12:29:47.823Z,4.60
2023-05-08T12:32:15.833Z,3.40
2023-05-08T12:34:43.860Z,3.20
2023-05-08T12:37:11.677Z,2.60
2023-05-08T12:39:44.638Z,2.60
2023-05-08T12:42:12.440Z,2.40
2023-05-08T12:44:40.320Z,2.60
2023-05-08T12:47:08.362Z,2.50
2023-05-08T12:49:37.598Z,2.40
2023-05-08T12:52:13.229Z,2.50
2023-05-08T12:54:48.587Z,2.20
2023-05-08T12:57:19.779Z,2.10
2023-05-08T13:02:23.890Z,1.90
2023-05-08T13:04:56.149Z,2.10
2023-05-08T13:07:24.240Z,2.30
2023-05-08T13:10:03.687Z,2.40
2023-05-08T13:12:32.073Z,2.20
2023-05-08T13:15:00.445Z,2.50
2023-05-08T13:17:28.226Z,2.50
2023-05-08T13:19:56.043Z,3.10
2023-05-08T13:22:26.676Z,2.80
2023-05-08T13:24:54.750Z,2.80
2023-05-08T13:27:23.391Z,3.20
2023-05-08T13:29:51.276Z,2.80
2023-05-08T13:32:19.478Z,2.80
2023-05-08T13:34:50.221Z,3.10
2023-05-08T13:37:19.902Z,3.50
2023-05-08T13:39:47.800Z,4.40
2023-05-08T13:42:15.607Z,3.20
2023-05-08T13:44:43.759Z,2.30
2023-05-08T13:47:11.667Z,1.90
2023-05-08T13:49:39.533Z,1.80
2023-05-08T13:52:07.416Z,2.00
2023-05-08T13:54:35.209Z,2.10
2023-05-08T13:57:03.655Z,2.00
2023-05-08T13:59:32.570Z,2.10
2023-05-08T14:02:00.569Z,2.10
2023-05-08T14:04:28.476Z,1.80
2023-05-08T14:06:56.540Z,1.70
2023-05-08T14:09:24.318Z,2.20
2023-05-08T14:11:52.303Z,2.00
2023-05-08T14:14:20.068Z,2.00
2023-05-08T14:16:48.863Z,1.90
2023-05-08T14:19:18.033Z,1.80
2023-05-08T14:21:45.782Z,1.90
2023-05-08T14:24:13.539Z,1.40
2023-05-08T14:26:42.260Z,1.10
2023-05-08T14:29:10.072Z,1.50
2023-05-08T14:31:37.857Z,1.20
2023-05-08T14:34:05.716Z,1.20
2023-05-08T14:36:33.615Z,1.40
2023-05-08T14:39:01.508Z,1.50
2023-05-08T14:41:30.750Z,1.30
2023-05-08T14:43:58.904Z,1.30
2023-05-08T14:46:26.961Z,1.80
2023-05-08T14:48:56.892Z,1.50
2023-05-08T14:51:24.823Z,1.60
2023-05-08T14:53:52.778Z,1.50
2023-05-08T14:58:52.964Z,1.70
2023-05-08T15:01:22.394Z,1.50
2023-05-08T15:03:53.081Z,1.40
2023-05-08T15:06:23.247Z,1.30
2023-05-08T15:08:51.919Z,1.10
2023-05-08T15:11:20.677Z,1.50
2023-05-08T15:13:48.875Z,0.90
2023-05-08T15:16:16.730Z,1.30
2023-05-08T15:18:44.508Z,1.20
2023-05-08T15:21:12.497Z,1.00
2023-05-08T15:23:40.321Z,1.10
2023-05-08T15:26:08.552Z,1.00
2023-05-08T15:28:36.615Z,1.30
2023-05-08T15:31:04.975Z,1.60
2023-05-08T15:33:32.794Z,1.30
2023-05-08T15:36:00.576Z,1.20
2023-05-08T15:38:28.872Z,1.70
2023-05-08T15:40:56.709Z,1.20
2023-05-08T15:43:24.514Z,1.50
2023-05-08T15:45:52.412Z,1.70
2023-05-08T15:48:20.468Z,1.30
2023-05-08T15:50:48.557Z,1.20
2023-05-08T15:53:16.412Z,1.80
2023-05-08T15:55:44.221Z,2.00
2023-05-08T15:58:12.144Z,1.70
2023-05-08T16:00:44.544Z,1.60
2023-05-08T16:03:13.723Z,1.30
2023-05-08T16:05:41.723Z,1.80
2023-05-08T16:08:12.438Z,1.90
2023-05-08T16:10:42.145Z,1.80
2023-05-08T16:13:10.198Z,1.80
2023-05-08T16:15:38.618Z,1.90
2023-05-08T16:18:07.597Z,1.80
2023-05-08T16:20:36.431Z,1.50
2023-05-08T16:23:05.251Z,1.50
2023-05-08T16:25:33.150Z,1.60
2023-05-08T16:28:00.920Z,1.70
2023-05-08T16:30:28.890Z,1.70
2023-05-08T16:32:56.764Z,2.20
2023-05-08T16:35:24.584Z,1.90
2023-05-08T16:37:52.796Z,1.70
2023-05-08T16:40:20.821Z,1.80
2023-05-08T16:42:48.562Z,1.70
2023-05-08T16:45:16.785Z,1.80
2023-05-08T16:47:44.638Z,1.90
2023-05-08T16:50:12.596Z,2.00
2023-05-08T16:52:40.379Z,1.70
2023-05-08T16:55:09.048Z,1.50
2023-05-08T16:57:36.924Z,2.00
2023-05-08T17:00:05.900Z,2.20
2023-05-08T17:02:33.858Z,2.00
2023-05-08T17:05:01.914Z,2.00
2023-05-08T17:07:29.725Z,2.00
2023-05-08T17:09:58.115Z,1.60
2023-05-08T17:12:26.097Z,2.00
2023-05-08T17:14:53.875Z,1.90
2023-05-08T17:17:21.692Z,2.10
2023-05-08T17:19:49.456Z,2.10
2023-05-08T17:22:19.553Z,2.30
2023-05-08T17:24:47.728Z,2.00
2023-05-08T17:27:15.572Z,2.10
2023-05-08T17:29:43.548Z,4.10
2023-05-08T17:32:11.813Z,5.20
2023-05-08T17:34:40.075Z,3.10
2023-05-08T17:37:07.881Z,3.00
2023-05-08T17:39:35.748Z,2.50
2023-05-08T17:42:03.605Z,2.60
2023-05-08T17:44:31.524Z,2.60
2023-05-08T17:46:59.454Z,2.30
2023-05-08T17:49:27.259Z,3.00
2023-05-08T17:51:54.996Z,2.20
2023-05-08T17:54:22.833Z,2.20
2023-05-08T17:56:50.617Z,2.10
2023-05-08T17:59:19.657Z,2.00
2023-05-08T18:01:47.674Z,2.10
2023-05-08T18:04:15.695Z,2.00
2023-05-08T18:06:43.727Z,2.10
2023-05-08T18:09:11.604Z,2.40
2023-05-08T18:11:39.420Z,2.00
2023-05-08T18:14:07.159Z,1.90
2023-05-08T18:16:35.213Z,2.00
2023-05-08T18:19:03.043Z,1.70
2023-05-08T18:21:31.592Z,1.60
2023-05-08T18:23:59.456Z,1.70
2023-05-08T18:26:27.268Z,2.00
2023-05-08T18:28:55.110Z,2.00
2023-05-08T18:31:23.160Z,1.90
2023-05-08T18:33:51.124Z,2.30
2023-05-08T18:36:19.070Z,2.40
2023-05-08T18:38:46.919Z,3.20
2023-05-08T18:41:14.838Z,3.20
2023-05-08T18:43:42.643Z,2.20
2023-05-08T18:46:12.596Z,2.10
2023-05-08T18:48:41.228Z,2.20
2023-05-08T18:51:09.677Z,2.40
2023-05-08T18:53:39.014Z,2.20
2023-05-08T18:56:07.199Z,2.60
2023-05-08T18:58:35.512Z,2.30
2023-05-08T19:01:03.652Z,2.30
2023-05-08T19:03:32.462Z,2.80
2023-05-08T19:06:00.521Z,2.50
2023-05-08T19:08:28.570Z,2.80
2023-05-08T19:10:56.533Z,2.70
2023-05-08T19:13:24.436Z,2.50
2023-05-08T19:15:54.226Z,2.90
2023-05-08T19:18:23.230Z,3.00
2023-05-08T19:20:52.087Z,2.80
2023-05-08T19:23:21.045Z,2.90
2023-05-08T19:25:50.151Z,3.60
2023-05-08T19:28:21.782Z,4.10
2023-05-08T19:30:50.861Z,3.60
2023-05-08T19:33:22.975Z,3.90
2023-05-08T19:35:51.570Z,9.40
2023-05-08T19:38:20.475Z,6.10
2023-05-08T19:40:57.120Z,6.20
2023-05-08T19:43:27.206Z,6.40
2023-05-08T19:45:55.916Z,6.30
2023-05-08T19:48:24.592Z,4.80
2023-05-08T19:50:55.213Z,4.70
2023-05-08T19:53:23.751Z,4.80
2023-05-08T19:55:51.850Z,4.90
2023-05-08T19:58:20.756Z,4.40
2023-05-08T20:00:51.513Z,4.20
2023-05-08T20:03:20.726Z,4.20
2023-05-08T20:05:50.961Z,4.20
2023-05-08T20:08:19.754Z,5.00
2023-05-08T20:10:50.297Z,4.40
2023-05-08T20:13:18.160Z,4.60
2023-05-08T20:15:46.103Z,4.20
2023-05-08T20:18:15.140Z,4.50
2023-05-08T20:20:45.172Z,5.00
2023-05-08T20:23:13.968Z,5.20
2023-05-08T20:25:46.894Z,5.70
2023-05-08T20:28:16.483Z,5.40
2023-05-08T20:30:45.535Z,5.30
2023-05-08T20:33:14.736Z,5.50
2023-05-08T20:35:42.843Z,5.90
2023-05-08T20:38:10.891Z,5.80
2023-05-08T20:40:38.723Z,6.40
2023-05-08T20:43:06.680Z,6.30
2023-05-08T20:45:34.519Z,5.80
2023-05-08T20:48:02.284Z,6.00
2023-05-08T20:50:30.247Z,5.60
2023-05-08T20:52:58.286Z,6.10
2023-05-08T20:55:26.186Z,5.90
2023-05-08T20:57:53.950Z,5.90
2023-05-08T21:00:22.128Z,5.60
2023-05-08T21:02:50.046Z,5.50
2023-05-08T21:05:18.802Z,5.60
2023-05-08T21:07:48.201Z,6.00
2023-05-08T21:10:16.694Z,5.80
2023-05-08T21:12:45.510Z,6.10
2023-05-08T21:15:13.623Z,6.30
2023-05-08T21:17:41.809Z,6.60
2023-05-08T21:20:10.779Z,6.30
2023-05-08T21:22:39.171Z,6.70
2023-05-08T21:25:16.685Z,6.40
2023-05-08T21:27:44.725Z,6.40
2023-05-08T21:30:15.513Z,6.40
2023-05-08T21:32:45.774Z,6.20
2023-05-08T21:35:14.183Z,6.30
2023-05-08T21:37:42.194Z,6.30
2023-05-08T21:40:10.381Z,5.70
2023-05-08T21:42:39.792Z,6.00
2023-05-08T21:45:08.409Z,5.80
2023-05-08T21:47:36.191Z,5.80
2023-05-08T21:50:04.449Z,5.40
2023-05-08T21:52:32.327Z,6.10
2023-05-08T21:55:00.072Z,5.50
2023-05-08T21:57:27.873Z,6.00
2023-05-08T21:59:55.640Z,5.80
2023-05-08T22:02:23.596Z,5.50
2023-05-08T22:04:51.391Z,4.70
2023-05-08T22:07:21.047Z,4.80
2023-05-08T22:09:48.913Z,4.90
2023-05-08T22:12:16.908Z,4.90
2023-05-08T22:14:44.799Z,5.10
2023-05-08T22:17:12.659Z,4.60
2023-05-08T22:19:40.482Z,4.70
2023-05-08T22:22:08.532Z,4.80
2023-05-08T22:24:36.360Z,5.50
2023-05-08T22:27:04.344Z,5.40
2023-05-08T22:29:32.162Z,5.30
2023-05-08T22:32:00.167Z,5.50
2023-05-08T22:34:28.033Z,5.10
2023-05-08T22:36:55.864Z,5.10
2023-05-08T22:39:23.692Z,5.80
2023-05-08T22:41:51.794Z,4.70
2023-05-08T22:44:19.689Z,5.20
2023-05-08T22:46:47.759Z,5.10
2023-05-08T22:49:15.748Z,4.40
2023-05-08T22:51:43.770Z,4.70
2023-05-08T22:54:11.724Z,5.80
2023-05-08T22:56:39.671Z,4.50
2023-05-08T22:59:07.479Z,4.90
2023-05-08T23:01:35.254Z,5.10
2023-05-08T23:04:03.077Z,4.20
2023-05-08T23:06:30.940Z,4.90
2023-05-08T23:08:59.145Z,4.40
2023-05-08T23:11:27.164Z,4.60
2023-05-08T23:13:54.998Z,4.00
2023-05-08T23:16:22.894Z,4.30
2023-05-08T23:18:50.943Z,4.30
2023-05-08T23:21:18.794Z,4.50
2023-05-08T23:23:47.952Z,3.90
2023-05-08T23:26:15.907Z,4.70
2023-05-08T23:28:43.688Z,4.10
2023-05-08T23:31:11.539Z,4.80
2023-05-08T23:33:39.687Z,4.00
2023-05-08T23:36:08.172Z,3.90
2023-05-08T23:38:35.950Z,3.70
2023-05-08T23:41:03.769Z,3.60
2023-05-08T23:43:32.073Z,3.30
2023-05-08T23:45:59.945Z,3.10
2023-05-08T23:48:28.249Z,3.00
2023-05-08T23:50:56.008Z,3.00
2023-05-08T23:53:23.995Z,3.00
2023-05-08T23:55:52.464Z,2.30
2023-05-08T23:58:21.233Z,2.60
